Time;durP1;ratioP1;P1;durP2;ratioP2;P2;SDS_P1;SDS_P2;PMS_P1;PMS_P2;Temp;Humidity;BMP_temperature;BMP_pressure;BME280_temperature;BME280_humidity;BME280_pressure;Samples;Min_cycle;Max_cycle;Signal;HPM_P1;HPM_P2
2022/12/27 00:01:35;;;;;;;8.93;3.03;;;3.90;99.90;;;;;;5070933;28;20032;-67
2022/12/27 00:04:01;;;;;;;6.88;2.53;;;3.90;99.90;;;;;;5063919;28;20487;-68
2022/12/27 00:06:27;;;;;;;6.63;2.80;;;3.90;99.90;;;;;;5064431;28;20041;-67
2022/12/27 00:08:53;;;;;;;8.55;3.00;;;3.80;99.90;;;;;;5070092;28;20463;-67
2022/12/27 00:11:22;;;;;;;8.40;2.95;;;3.90;99.90;;;;;;5071385;28;20098;-67
2022/12/27 00:13:49;;;;;;;12.45;4.68;;;3.80;99.90;;;;;;5057219;28;20068;-67
2022/12/27 00:16:18;;;;;;;9.40;2.80;;;3.90;99.90;;;;;;5065600;28;20036;-67
2022/12/27 00:18:45;;;;;;;8.75;2.95;;;3.90;99.90;;;;;;5071433;28;20048;-67
2022/12/27 00:21:12;;;;;;;12.38;3.50;;;3.90;99.90;;;;;;5058148;28;20088;-66
2022/12/27 00:23:40;;;;;;;8.45;3.33;;;4.00;99.90;;;;;;5067339;28;20471;-66
2022/12/27 00:26:28;;;;;;;7.45;3.08;;;4.00;99.90;;;;;;5071165;28;20048;-66
2022/12/27 00:28:55;;;;;;;10.38;3.72;;;3.90;99.90;;;;;;5065609;28;20029;-67
2022/12/27 00:31:22;;;;;;;7.50;3.10;;;3.90;99.90;;;;;;5070665;28;20047;-68
2022/12/27 00:33:49;;;;;;;12.05;3.92;;;3.80;99.90;;;;;;5075327;28;20048;-68
2022/12/27 00:36:18;;;;;;;10.95;4.20;;;3.80;99.90;;;;;;5075666;28;20045;-68
2022/12/27 00:38:44;;;;;;;10.90;3.85;;;3.70;99.90;;;;;;5064961;28;20063;-67
2022/12/27 00:41:10;;;;;;;10.55;3.70;;;3.80;99.90;;;;;;5069992;28;20071;-67
2022/12/27 00:43:36;;;;;;;13.85;4.07;;;3.70;99.90;;;;;;5074850;28;20103;-67
2022/12/27 00:46:02;;;;;;;8.63;3.40;;;3.60;99.90;;;;;;5075169;28;20055;-68
2022/12/27 00:48:28;;;;;;;13.35;4.75;;;3.60;99.90;;;;;;5070851;28;20049;-68
2022/12/27 00:51:11;;;;;;;13.00;4.15;;;3.50;99.90;;;;;;5074536;28;20513;-68
2022/12/27 00:53:37;;;;;;;12.45;3.58;;;3.60;99.90;;;;;;5069289;28;21092;-68
2022/12/27 00:56:13;;;;;;;10.70;4.15;;;3.50;99.90;;;;;;5073047;28;20039;-67
2022/12/27 00:58:39;;;;;;;11.43;3.90;;;3.50;99.90;;;;;;5074144;28;20580;-67
2022/12/27 01:01:06;;;;;;;11.93;4.35;;;3.50;99.90;;;;;;5056763;28;20119;-67
2022/12/27 01:03:32;;;;;;;6.28;3.60;;;3.40;99.90;;;;;;5051042;28;20041;-67
2022/12/27 01:06:03;;;;;;;14.70;4.43;;;3.40;99.90;;;;;;5073464;28;20037;-67
2022/12/27 01:08:29;;;;;;;14.00;4.07;;;3.30;99.90;;;;;;5074795;28;20063;-67
2022/12/27 01:10:54;;;;;;;14.77;4.10;;;3.30;99.90;;;;;;5053024;28;20117;-67
2022/12/27 01:13:20;;;;;;;16.48;4.03;;;3.20;99.90;;;;;;5050127;28;20055;-67
2022/12/27 01:15:45;;;;;;;14.27;4.35;;;3.30;99.90;;;;;;5074602;28;20044;-67
2022/12/27 01:18:11;;;;;;;11.32;4.47;;;3.30;99.90;;;;;;5056820;28;20044;-67
2022/12/27 01:20:37;;;;;;;11.02;4.20;;;3.30;99.90;;;;;;5051864;28;20063;-67
2022/12/27 01:23:03;;;;;;;12.00;3.95;;;3.30;99.90;;;;;;5073707;28;20490;-68
2022/12/27 01:25:28;;;;;;;13.27;4.30;;;3.30;99.90;;;;;;5074461;28;20089;-66
2022/12/27 01:27:54;;;;;;;16.52;4.20;;;3.30;99.90;;;;;;5063089;28;20086;-66
2022/12/27 01:30:19;;;;;;;15.45;4.45;;;3.40;99.90;;;;;;5065178;28;20045;-65
2022/12/27 01:32:45;;;;;;;12.25;3.70;;;3.40;99.90;;;;;;5056026;28;20533;-66
2022/12/27 01:35:11;;;;;;;11.18;4.07;;;3.50;99.90;;;;;;5056569;28;20110;-66
2022/12/27 01:37:36;;;;;;;12.70;4.05;;;3.50;99.90;;;;;;5052648;28;20384;-66
2022/12/27 01:40:02;;;;;;;15.70;4.15;;;3.50;99.90;;;;;;5056047;28;20064;-67
2022/12/27 01:45:16;;;;;;;12.88;4.63;;;3.60;99.90;;;;;;5037220;28;20099;-66
2022/12/27 01:47:53;;;;;;;16.33;5.07;;;3.60;99.90;;;;;;5045918;28;20079;-65
2022/12/27 01:50:24;;;;;;;7.80;4.57;;;3.60;99.90;;;;;;5053854;28;20094;-66
2022/12/27 01:52:52;;;;;;;14.37;4.60;;;3.70;99.90;;;;;;5040402;28;20096;-65
2022/12/27 01:55:24;;;;;;;13.38;4.35;;;3.60;99.90;;;;;;5063497;28;20076;-66
2022/12/27 01:57:54;;;;;;;13.20;4.90;;;3.60;99.90;;;;;;5066468;28;20550;-66
2022/12/27 02:00:20;;;;;;;10.98;4.50;;;3.50;99.90;;;;;;5068124;28;20048;-66
2022/12/27 02:02:45;;;;;;;10.40;5.03;;;3.50;99.90;;;;;;5061975;28;20029;-66
2022/12/27 02:05:13;;;;;;;13.15;5.13;;;3.40;99.90;;;;;;5073224;28;20075;-64
2022/12/27 02:07:44;;;;;;;14.70;4.90;;;3.50;99.90;;;;;;5074166;28;20123;-65
2022/12/27 02:10:10;;;;;;;12.90;5.28;;;3.60;99.90;;;;;;5062495;28;20033;-66
2022/12/27 02:12:37;;;;;;;15.57;5.15;;;3.50;99.90;;;;;;5072700;28;20126;-66
2022/12/27 02:15:03;;;;;;;13.23;4.95;;;3.60;99.90;;;;;;5073551;28;20082;-65
2022/12/27 02:17:31;;;;;;;15.15;4.97;;;3.50;99.90;;;;;;5066430;28;20041;-65
2022/12/27 02:20:08;;;;;;;13.35;4.82;;;3.50;99.90;;;;;;5072473;28;20502;-66
2022/12/27 02:25:40;;;;;;;14.57;5.22;;;3.60;99.90;;;;;;5073592;28;20047;-66
2022/12/27 02:28:18;;;;;;;11.93;4.70;;;3.70;99.90;;;;;;5056559;28;20493;-65
2022/12/27 02:30:48;;;;;;;14.35;4.82;;;3.70;99.90;;;;;;5072683;28;20036;-65
2022/12/27 02:33:28;;;;;;;18.17;5.63;;;3.80;99.90;;;;;;5071700;28;20494;-63
2022/12/27 02:36:02;;;;;;;12.68;4.95;;;3.80;99.90;;;;;;5072025;28;20062;-64
2022/12/27 02:38:31;;;;;;;14.27;4.65;;;3.70;99.90;;;;;;5072317;28;20600;-66
2022/12/27 02:55:36;;;;;;;17.17;4.38;;;3.80;99.90;;;;;;5068849;28;20106;-65
2022/12/27 02:58:13;;;;;;;11.75;4.38;;;3.80;99.90;;;;;;5072819;28;20052;-65
2022/12/27 03:04:15;;;;;;;15.10;4.78;;;3.70;99.90;;;;;;5041191;28;20051;-66
2022/12/27 03:07:05;;;;;;;12.43;4.03;;;3.70;99.90;;;;;;5069585;28;20494;-65
2022/12/27 03:15:54;;;;;;;9.63;3.88;;;3.80;99.90;;;;;;5072461;28;20106;-65
2022/12/27 03:18:33;;;;;;;13.20;3.58;;;3.80;99.90;;;;;;5060565;28;20049;-65
2022/12/27 03:26:34;;;;;;;12.15;3.10;;;4.00;99.90;;;;;;5061408;28;20091;-66
2022/12/27 03:34:44;;;;;;;10.60;3.60;;;4.00;99.90;;;;;;5063164;28;20094;-65
2022/12/27 03:40:23;;;;;;;10.43;4.10;;;4.00;99.90;;;;;;5032158;28;20110;-66
2022/12/27 03:43:11;;;;;;;11.57;4.07;;;4.00;99.90;;;;;;5063148;28;20367;-65
2022/12/27 03:48:56;;;;;;;10.93;3.33;;;4.10;99.90;;;;;;5071924;28;20501;-66
2022/12/27 03:51:25;;;;;;;11.85;3.95;;;4.20;99.90;;;;;;5064822;28;20040;-64
2022/12/27 03:53:53;;;;;;;8.52;4.30;;;4.30;99.90;;;;;;5071436;28;20052;-65
2022/12/27 03:56:19;;;;;;;7.90;3.78;;;4.40;99.90;;;;;;5071971;28;20086;-65
2022/12/27 03:58:45;;;;;;;14.48;3.17;;;4.40;99.90;;;;;;5056708;28;20043;-65
2022/12/27 04:01:11;;;;;;;6.55;3.10;;;4.60;99.90;;;;;;5073364;28;20036;-66
2022/12/27 04:03:36;;;;;;;8.35;3.53;;;4.60;99.90;;;;;;5072093;28;20117;-65
2022/12/27 04:06:02;;;;;;;10.80;3.42;;;4.60;99.90;;;;;;5063341;28;20112;-66
2022/12/27 04:35:50;;;;;;;9.18;3.30;;;4.60;99.90;;;;;;5045447;28;20060;-65
2022/12/27 04:38:16;;;;;;;13.40;3.55;;;4.50;99.90;;;;;;5071319;28;20036;-65
2022/12/27 04:55:25;;;;;;;13.88;5.03;;;4.20;99.90;;;;;;5033314;28;20060;-65
2022/12/27 04:57:51;;;;;;;16.10;4.38;;;4.10;99.90;;;;;;5056156;28;20097;-65
2022/12/27 05:03:06;;;;;;;15.52;5.38;;;4.00;99.90;;;;;;5050633;28;20103;-65
2022/12/27 05:05:32;;;;;;;15.55;5.18;;;4.00;99.90;;;;;;5065517;28;20048;-65
2022/12/27 05:16:13;;;;;;;17.27;5.28;;;3.80;99.90;;;;;;5071744;28;20431;-65
2022/12/27 05:18:38;;;;;;;13.93;5.60;;;3.80;99.90;;;;;;5074334;28;20044;-65
2022/12/27 05:21:05;;;;;;;11.13;5.43;;;3.80;99.90;;;;;;5053001;28;20045;-65
2022/12/27 05:26:22;;;;;;;15.05;5.18;;;3.80;99.90;;;;;;5074450;28;20132;-66
2022/12/27 05:28:50;;;;;;;11.13;4.50;;;4.00;99.90;;;;;;5070888;28;20052;-66
2022/12/27 05:31:16;;;;;;;13.88;4.85;;;4.10;99.90;;;;;;5058234;28;20124;-66
2022/12/27 05:33:41;;;;;;;13.90;4.53;;;4.10;99.90;;;;;;5073450;28;20124;-65
2022/12/27 05:36:08;;;;;;;9.52;4.03;;;4.10;99.90;;;;;;5074360;28;20040;-65
2022/12/27 05:38:33;;;;;;;10.43;4.30;;;4.10;99.90;;;;;;5056724;28;20037;-65
2022/12/27 05:41:00;;;;;;;17.20;4.50;;;4.20;99.90;;;;;;5073355;28;20043;-64
2022/12/27 05:43:27;;;;;;;15.85;5.00;;;4.10;99.90;;;;;;5073564;28;20048;-66
2022/12/27 05:45:54;;;;;;;14.98;5.38;;;4.20;99.90;;;;;;5072256;28;20037;-65
2022/12/27 05:48:20;;;;;;;14.73;5.05;;;4.20;99.90;;;;;;5045098;28;20119;-65
2022/12/27 05:50:46;;;;;;;12.80;4.85;;;4.30;99.90;;;;;;5065436;28;20037;-65
2022/12/27 05:53:12;;;;;;;19.45;5.80;;;4.20;99.90;;;;;;5073411;28;20036;-65
2022/12/27 05:55:38;;;;;;;18.98;6.07;;;4.30;99.90;;;;;;5060362;28;20040;-66
2022/12/27 05:58:04;;;;;;;16.90;5.32;;;4.30;99.90;;;;;;5067663;28;20093;-65
2022/12/27 06:00:29;;;;;;;19.50;5.40;;;4.30;99.90;;;;;;5067992;28;20052;-65
2022/12/27 06:02:55;;;;;;;17.45;5.93;;;4.30;99.90;;;;;;5072771;28;20032;-66
2022/12/27 06:05:21;;;;;;;15.60;4.95;;;4.40;99.90;;;;;;5072535;28;20517;-65
2022/12/27 06:07:46;;;;;;;16.75;5.55;;;4.50;99.90;;;;;;5069298;28;20040;-65
2022/12/27 06:10:12;;;;;;;13.50;4.95;;;4.50;99.90;;;;;;5061069;28;20064;-64
2022/12/27 06:12:37;;;;;;;14.50;5.53;;;4.50;99.90;;;;;;5062989;28;20487;-66
2022/12/27 06:15:05;;;;;;;17.42;5.03;;;4.50;99.90;;;;;;5069142;28;20036;-66
2022/12/27 06:17:31;;;;;;;12.60;5.43;;;4.60;99.90;;;;;;5072449;28;20095;-66
2022/12/27 06:19:57;;;;;;;25.33;5.82;;;4.60;99.90;;;;;;5073610;28;20123;-65
2022/12/27 06:22:23;;;;;;;17.67;5.43;;;4.60;99.90;;;;;;5061664;28;20115;-64
2022/12/27 06:24:49;;;;;;;15.88;5.70;;;4.60;99.90;;;;;;5065375;28;20123;-65
2022/12/27 06:27:15;;;;;;;17.23;5.40;;;4.60;99.90;;;;;;5064462;28;20115;-65
2022/12/27 06:29:40;;;;;;;15.48;5.65;;;4.60;99.90;;;;;;5055429;28;20105;-63
2022/12/27 06:32:06;;;;;;;15.35;5.32;;;4.70;99.90;;;;;;5060566;28;20065;-65
2022/12/27 06:34:31;;;;;;;14.38;5.47;;;4.60;99.90;;;;;;5072969;28;20040;-64
2022/12/27 06:36:57;;;;;;;14.45;5.50;;;4.60;99.90;;;;;;5066213;28;20025;-64
2022/12/27 06:39:22;;;;;;;17.35;5.15;;;4.60;99.90;;;;;;5071242;28;20457;-64
2022/12/27 06:41:49;;;;;;;12.30;4.65;;;4.60;99.90;;;;;;5072557;28;20040;-65
2022/12/27 06:44:15;;;;;;;15.68;5.60;;;4.50;99.90;;;;;;5062434;28;20045;-63
2022/12/27 06:46:41;;;;;;;14.57;5.88;;;4.60;99.90;;;;;;5063385;28;20041;-64
2022/12/27 06:49:08;;;;;;;13.50;4.88;;;4.50;99.90;;;;;;5051915;28;20120;-65
2022/12/27 06:51:35;;;;;;;13.30;5.40;;;4.60;99.90;;;;;;5072484;28;20540;-65
2022/12/27 06:54:00;;;;;;;16.02;6.95;;;4.50;99.90;;;;;;5068524;28;20032;-65
2022/12/27 06:56:26;;;;;;;18.75;6.50;;;4.50;99.90;;;;;;5064601;28;20040;-64
2022/12/27 06:58:53;;;;;;;13.55;6.10;;;4.60;99.90;;;;;;5067909;28;20402;-64
2022/12/27 07:01:21;;;;;;;18.08;6.32;;;4.60;99.90;;;;;;5062492;28;20063;-65
2022/12/27 07:03:52;;;;;;;14.75;6.35;;;4.60;99.90;;;;;;5066761;28;20044;-63
2022/12/27 07:06:18;;;;;;;16.52;7.18;;;4.50;99.90;;;;;;5072381;28;20100;-64
2022/12/27 07:08:45;;;;;;;19.05;6.28;;;4.50;99.90;;;;;;5072428;28;20040;-64
2022/12/27 07:11:12;;;;;;;15.48;6.00;;;4.50;99.90;;;;;;5056206;28;20033;-64
2022/12/27 07:13:41;;;;;;;16.60;6.05;;;4.40;99.90;;;;;;5069811;28;20051;-64
2022/12/27 07:16:08;;;;;;;12.23;5.18;;;4.30;99.90;;;;;;5071297;28;20040;-64
2022/12/27 07:18:34;;;;;;;16.73;5.88;;;4.30;99.90;;;;;;5061901;28;20045;-64
2022/12/27 07:21:09;;;;;;;15.85;5.43;;;4.20;99.90;;;;;;5052669;28;20036;-64
2022/12/27 07:23:34;;;;;;;19.08;5.68;;;4.20;99.90;;;;;;5071653;28;20043;-64
2022/12/27 07:26:12;;;;;;;14.73;5.57;;;4.20;99.90;;;;;;5071858;28;20036;-64
2022/12/27 07:28:38;;;;;;;13.88;4.95;;;4.20;99.90;;;;;;5057451;28;20403;-64
2022/12/27 07:31:28;;;;;;;12.93;5.45;;;4.30;99.90;;;;;;5068409;28;20043;-64
2022/12/27 07:33:54;;;;;;;14.15;5.53;;;4.30;99.90;;;;;;5072108;28;20103;-65
2022/12/27 07:36:24;;;;;;;17.88;6.90;;;4.40;99.90;;;;;;5059850;28;20123;-64
2022/12/27 07:38:49;;;;;;;16.90;5.50;;;4.40;99.90;;;;;;5071465;28;20042;-64
2022/12/27 07:41:15;;;;;;;12.93;5.22;;;4.50;99.90;;;;;;5071314;28;20444;-65
2022/12/27 07:43:42;;;;;;;14.38;5.25;;;4.50;99.90;;;;;;5058495;22;20063;-64
2022/12/27 07:46:11;;;;;;;13.95;4.60;;;4.40;99.90;;;;;;5046503;28;20088;-65
2022/12/27 07:48:37;;;;;;;14.00;4.97;;;4.30;99.90;;;;;;5059832;28;20037;-64
2022/12/27 07:51:03;;;;;;;13.10;4.97;;;4.30;99.90;;;;;;5045168;28;20451;-65
2022/12/27 07:53:29;;;;;;;23.92;5.70;;;4.30;99.90;;;;;;5057347;28;20041;-65
2022/12/27 07:55:55;;;;;;;13.70;4.95;;;4.30;99.90;;;;;;5084910;28;20104;-64
2022/12/27 07:58:21;;;;;;;14.70;5.10;;;4.30;99.90;;;;;;5091774;28;20442;-64
2022/12/27 08:00:49;;;;;;;14.93;5.30;;;4.40;99.90;;;;;;5082183;28;20033;-64
2022/12/27 08:03:15;;;;;;;16.75;5.80;;;4.40;99.90;;;;;;5051976;28;20033;-65
2022/12/27 08:05:48;;;;;;;15.52;5.25;;;4.40;99.90;;;;;;5052096;28;20059;-64
2022/12/27 08:08:18;;;;;;;14.35;5.40;;;4.40;99.90;;;;;;5060789;28;20407;-65
2022/12/27 08:10:44;;;;;;;11.90;5.35;;;4.30;99.90;;;;;;5054548;28;20033;-65
2022/12/27 08:13:09;;;;;;;19.05;5.35;;;4.30;99.90;;;;;;5086230;28;20042;-64
2022/12/27 08:15:37;;;;;;;22.85;6.30;;;4.20;99.90;;;;;;5090557;28;20036;-65
2022/12/27 08:18:03;;;;;;;12.27;5.55;;;4.20;99.90;;;;;;5049785;28;20190;-66
2022/12/27 08:20:29;;;;;;;14.77;5.55;;;4.20;99.90;;;;;;5071088;28;20562;-65
2022/12/27 08:22:55;;;;;;;14.32;5.15;;;4.30;99.90;;;;;;5063226;28;20040;-65
2022/12/27 08:25:20;;;;;;;17.05;5.18;;;4.20;99.90;;;;;;5057798;28;20036;-65
2022/12/27 08:27:46;;;;;;;15.30;6.20;;;4.20;99.90;;;;;;5062719;28;20116;-65
2022/12/27 08:30:12;;;;;;;14.10;5.70;;;4.20;99.90;;;;;;5071633;28;20044;-64
2022/12/27 08:32:38;;;;;;;20.33;5.53;;;4.20;99.90;;;;;;5067989;28;20032;-65
2022/12/27 08:35:04;;;;;;;15.82;5.80;;;4.20;99.90;;;;;;5070157;28;20043;-65
2022/12/27 08:37:29;;;;;;;12.75;5.60;;;4.20;99.90;;;;;;5070763;28;20435;-65
2022/12/27 08:39:55;;;;;;;14.80;5.50;;;4.30;99.90;;;;;;5071326;28;20044;-65
2022/12/27 08:42:20;;;;;;;12.85;5.68;;;4.20;99.90;;;;;;5052728;28;20045;-65
2022/12/27 08:44:46;;;;;;;15.48;5.85;;;4.20;99.90;;;;;;5069487;28;20444;-65
2022/12/27 08:47:11;;;;;;;14.27;5.75;;;4.30;99.90;;;;;;5091094;28;20036;-65
2022/12/27 08:49:37;;;;;;;16.00;6.00;;;4.30;99.90;;;;;;5084873;28;20067;-65
2022/12/27 08:52:03;;;;;;;14.18;5.63;;;4.30;99.90;;;;;;5065483;28;20035;-65
2022/12/27 08:54:28;;;;;;;20.52;5.88;;;4.40;99.90;;;;;;5056574;28;20491;-64
2022/12/27 08:56:54;;;;;;;20.60;5.65;;;4.40;99.90;;;;;;5075196;28;20439;-65
2022/12/27 08:59:19;;;;;;;31.17;6.40;;;4.40;99.90;;;;;;5066178;28;20037;-65
2022/12/27 09:01:45;;;;;;;19.42;5.47;;;4.50;99.90;;;;;;5066258;28;20040;-65
2022/12/27 09:04:10;;;;;;;15.43;6.22;;;4.50;99.90;;;;;;5074141;28;20079;-65
2022/12/27 09:06:39;;;;;;;16.10;5.78;;;4.60;99.90;;;;;;5067058;28;20037;-65
2022/12/27 09:09:04;;;;;;;19.67;5.80;;;4.60;99.90;;;;;;5058685;28;20028;-65
2022/12/27 09:11:32;;;;;;;14.75;5.65;;;4.70;99.90;;;;;;5073719;28;20090;-65
2022/12/27 09:14:00;;;;;;;20.80;5.85;;;4.70;99.90;;;;;;5073862;28;20051;-63
2022/12/27 09:16:27;;;;;;;15.15;6.22;;;4.70;99.90;;;;;;5060204;28;20059;-65
2022/12/27 09:18:55;;;;;;;12.95;5.47;;;4.60;99.90;;;;;;5073808;28;20040;-66
2022/12/27 09:21:22;;;;;;;21.67;6.75;;;4.60;99.90;;;;;;5074126;28;20399;-64
2022/12/27 09:23:48;;;;;;;18.60;6.28;;;4.60;99.90;;;;;;5071070;28;20066;-64
2022/12/27 09:26:15;;;;;;;16.30;5.82;;;4.60;99.90;;;;;;5059841;28;20151;-64
2022/12/27 09:28:42;;;;;;;15.68;6.35;;;4.70;99.90;;;;;;5073078;28;20044;-64
2022/12/27 09:31:09;;;;;;;17.20;6.40;;;4.70;99.90;;;;;;5070396;28;20044;-65
2022/12/27 09:33:35;;;;;;;13.75;5.80;;;4.70;99.90;;;;;;5063140;28;20058;-65
2022/12/27 09:36:09;;;;;;;16.45;5.80;;;4.70;99.90;;;;;;5074205;28;20494;-65
2022/12/27 09:38:35;;;;;;;12.60;5.45;;;4.80;99.90;;;;;;5074154;28;20037;-65
2022/12/27 09:41:05;;;;;;;11.52;5.78;;;4.80;99.90;;;;;;5068652;28;20112;-65
2022/12/27 09:43:42;;;;;;;15.52;5.97;;;4.90;99.90;;;;;;5055624;28;20077;-65
2022/12/27 09:46:19;;;;;;;22.08;6.32;;;5.00;99.90;;;;;;5074056;28;20028;-65
2022/12/27 09:48:47;;;;;;;16.67;5.80;;;5.00;99.90;;;;;;5066695;28;20065;-65
2022/12/27 09:51:28;;;;;;;18.80;6.18;;;5.10;99.90;;;;;;5050306;28;20116;-65
2022/12/27 09:54:11;;;;;;;13.95;5.25;;;5.20;99.90;;;;;;5070825;28;20517;-65
2022/12/27 09:56:37;;;;;;;11.13;5.40;;;5.20;99.90;;;;;;5074025;28;20163;-65
2022/12/27 09:59:22;;;;;;;10.68;5.20;;;5.30;99.90;;;;;;5073962;28;20123;-65
2022/12/27 10:01:48;;;;;;;13.85;4.57;;;5.30;99.90;;;;;;5054713;28;20024;-65
2022/12/27 10:04:16;;;;;;;17.00;5.28;;;5.30;99.90;;;;;;5063402;28;20036;-66
2022/12/27 10:06:48;;;;;;;16.65;5.63;;;5.40;99.90;;;;;;5063490;28;20321;-63
2022/12/27 10:09:32;;;;;;;;;;;5.50;99.90;;;;;;5073708;28;20406;-63
2022/12/27 10:12:15;;;;;;;12.95;4.90;;;5.60;99.90;;;;;;5073531;28;19917;-63
2022/12/27 10:15:11;;;;;;;16.58;5.25;;;5.70;99.90;;;;;;5068480;28;20055;-63
2022/12/27 10:17:53;;;;;;;15.85;5.18;;;5.80;99.90;;;;;;5075262;28;20040;-64
2022/12/27 10:20:56;;;;;;;13.48;5.15;;;5.80;99.90;;;;;;5093525;28;20505;-64
2022/12/27 10:23:37;;;;;;;12.93;5.63;;;5.90;99.90;;;;;;5055665;28;20044;-63
2022/12/27 10:26:12;;;;;;;19.00;5.10;;;6.00;99.90;;;;;;5073134;28;20028;-63
2022/12/27 10:28:40;;;;;;;10.35;4.50;;;6.00;99.90;;;;;;5074344;28;20551;-63
2022/12/27 10:31:13;;;;;;;10.35;4.75;;;6.00;99.90;;;;;;5068280;28;20116;-63
2022/12/27 10:33:39;;;;;;;15.13;5.40;;;6.10;99.90;;;;;;5066818;28;20048;-65
2022/12/27 10:36:21;;;;;;;11.57;4.88;;;6.20;99.90;;;;;;5075386;28;20123;-63
2022/12/27 10:38:47;;;;;;;10.43;4.22;;;6.20;99.90;;;;;;5050548;28;20079;-65
2022/12/27 10:41:42;;;;;;;10.57;4.13;;;6.30;99.90;;;;;;5060174;28;20068;-63
2022/12/27 10:44:11;;;;;;;11.10;4.03;;;6.30;99.90;;;;;;5069027;28;20052;-63
2022/12/27 10:46:38;;;;;;;11.88;4.57;;;6.30;99.90;;;;;;5061035;28;20032;-65
2022/12/27 10:49:21;;;;;;;17.35;4.70;;;6.30;99.90;;;;;;5061127;28;20040;-64
2022/12/27 10:51:48;;;;;;;16.13;4.72;;;6.30;99.90;;;;;;5072513;28;20037;-63
2022/12/27 10:54:14;;;;;;;15.90;5.20;;;6.30;99.90;;;;;;5065175;28;20047;-65
2022/12/27 10:56:42;;;;;;;16.17;4.18;;;6.30;99.90;;;;;;5069169;28;20106;-65
2022/12/27 10:59:26;;;;;;;10.48;4.05;;;6.30;99.90;;;;;;5087162;28;20513;-65
2022/12/27 11:02:00;;;;;;;12.48;4.10;;;6.20;99.90;;;;;;5085158;28;20134;-65
2022/12/27 11:04:27;;;;;;;14.88;4.90;;;6.20;99.90;;;;;;5070456;28;20046;-65
2022/12/27 11:06:58;;;;;;;13.25;4.10;;;6.20;99.90;;;;;;5072027;28;20024;-65
2022/12/27 11:09:34;;;;;;;10.18;3.75;;;6.20;99.90;;;;;;5072525;28;20044;-65
2022/12/27 11:12:22;;;;;;;11.20;4.38;;;6.20;99.90;;;;;;5061188;28;20047;-65
2022/12/27 11:15:03;;;;;;;12.25;4.10;;;6.20;99.90;;;;;;5063549;28;20048;-65
2022/12/27 11:17:34;;;;;;;12.13;3.80;;;6.40;99.90;;;;;;5071841;28;20063;-65
2022/12/27 11:20:17;;;;;;;12.00;4.40;;;6.50;99.90;;;;;;5064434;28;20412;-65
2022/12/27 11:22:46;;;;;;;15.32;4.30;;;6.60;99.90;;;;;;5062930;28;20036;-66
2022/12/27 11:25:14;;;;;;;10.13;3.70;;;6.70;99.90;;;;;;5072079;28;20104;-65
2022/12/27 11:27:45;;;;;;;15.07;4.32;;;6.80;99.90;;;;;;5064115;28;20530;-65
2022/12/27 11:30:22;;;;;;;15.23;4.40;;;6.80;99.90;;;;;;5061940;28;20127;-65
2022/12/27 11:32:48;;;;;;;11.57;3.67;;;6.80;99.90;;;;;;5063414;28;20041;-65
2022/12/27 11:35:18;;;;;;;11.98;4.00;;;6.70;99.90;;;;;;5072216;28;20066;-65
2022/12/27 11:37:44;;;;;;;7.65;4.28;;;6.70;99.90;;;;;;5066698;28;20043;-65
2022/12/27 11:40:21;;;;;;;8.15;3.95;;;6.60;99.90;;;;;;5053692;28;20029;-65
2022/12/27 11:42:52;;;;;;;10.80;4.00;;;6.70;99.90;;;;;;5063086;28;20497;-65
2022/12/27 11:45:17;;;;;;;13.32;4.22;;;6.70;99.90;;;;;;5061452;28;20040;-65
2022/12/27 11:48:05;;;;;;;14.55;4.40;;;6.80;99.90;;;;;;5068930;28;20036;-64
2022/12/27 11:50:44;;;;;;;14.20;4.50;;;6.80;99.90;;;;;;5071648;28;20084;-64
2022/12/27 11:53:48;;;;;;;16.38;5.28;;;6.70;99.90;;;;;;5069449;28;20045;-64
2022/12/27 11:56:25;;;;;;;10.52;4.20;;;6.70;99.90;;;;;;5067037;28;20044;-65
2022/12/27 11:59:29;;;;;;;14.85;4.85;;;6.60;99.90;;;;;;5063829;28;20106;-65
2022/12/27 12:02:16;;;;;;;15.07;4.88;;;6.50;99.90;;;;;;5005695;28;20044;-65
2022/12/27 12:04:59;;;;;;;13.50;4.70;;;6.50;99.90;;;;;;5047712;28;20048;-65
2022/12/27 12:07:43;;;;;;;11.60;5.03;;;6.50;99.90;;;;;;5074197;28;20044;-65
2022/12/27 12:10:20;;;;;;;11.52;4.88;;;6.50;99.90;;;;;;5078286;28;20032;-65
2022/12/27 12:13:07;;;;;;;15.27;5.30;;;6.50;99.90;;;;;;5053022;28;20512;-65
2022/12/27 12:15:33;;;;;;;12.50;5.22;;;6.50;99.90;;;;;;5068968;28;20044;-65
2022/12/27 12:18:24;;;;;;;15.60;6.05;;;6.50;99.90;;;;;;5066615;28;20036;-65
2022/12/27 12:21:18;;;;;;;13.10;6.50;;;6.50;99.90;;;;;;5054430;28;20041;-65
2022/12/27 12:24:38;;;;;;;19.42;6.82;;;6.50;99.90;;;;;;5060468;28;20072;-64
2022/12/27 12:27:34;;;;;;;19.00;6.43;;;6.60;99.90;;;;;;4989328;28;20038;-64
2022/12/27 12:30:23;;;;;;;16.25;6.30;;;6.60;99.90;;;;;;5091360;28;20064;-64
2022/12/27 12:33:25;;;;;;;17.67;7.80;;;6.50;99.90;;;;;;5043768;28;20068;-65
2022/12/27 12:36:16;;;;;;;23.23;7.38;;;6.50;99.90;;;;;;5064376;28;20033;-65
2022/12/27 12:38:56;;;;;;;13.30;7.32;;;6.40;99.90;;;;;;5081137;28;20044;-64
2022/12/27 12:41:48;;;;;;;21.45;8.70;;;6.40;99.90;;;;;;5069875;28;20041;-65
2022/12/27 12:44:50;;;;;;;18.15;9.32;;;6.30;99.90;;;;;;5065109;28;20129;-65
2022/12/27 12:47:35;;;;;;;19.98;10.18;;;6.30;99.90;;;;;;5049507;28;20115;-65
2022/12/27 12:50:25;;;;;;;18.95;10.20;;;6.30;99.90;;;;;;5047563;28;20132;-63
2022/12/27 12:53:26;;;;;;;19.83;10.45;;;6.30;99.90;;;;;;5059227;28;20551;-65
2022/12/27 12:56:19;;;;;;;20.35;10.88;;;6.40;99.90;;;;;;5067433;28;20490;-65
2022/12/27 12:59:08;;;;;;;20.25;9.80;;;6.50;99.90;;;;;;5091242;28;20041;-64
2022/12/27 13:01:51;;;;;;;20.88;10.27;;;6.60;99.90;;;;;;5072775;28;20037;-64
2022/12/27 13:04:42;;;;;;;19.25;10.70;;;6.60;99.90;;;;;;5060980;28;20037;-64
2022/12/27 13:07:11;;;;;;;19.83;11.60;;;6.60;99.90;;;;;;5076442;28;20047;-64
2022/12/27 13:10:13;;;;;;;21.50;10.30;;;6.70;99.90;;;;;;5056761;28;20036;-64
2022/12/27 13:13:08;;;;;;;19.00;10.32;;;6.70;99.90;;;;;;5069445;28;20507;-64
2022/12/27 13:16:04;;;;;;;23.65;10.23;;;6.70;99.90;;;;;;5029538;28;20056;-63
2022/12/27 13:18:48;;;;;;;19.05;9.80;;;6.70;99.90;;;;;;5058200;28;20190;-64
2022/12/27 13:21:41;;;;;;;21.13;10.48;;;6.70;99.90;;;;;;5065789;28;20055;-64
2022/12/27 13:24:33;;;;;;;21.60;12.38;;;6.70;99.90;;;;;;5067884;28;20062;-64
2022/12/27 13:27:19;;;;;;;21.60;13.15;;;6.70;99.90;;;;;;5062059;28;20119;-64
2022/12/27 13:30:02;;;;;;;27.95;14.73;;;6.60;99.90;;;;;;5069931;28;20067;-64
2022/12/27 13:32:57;;;;;;;24.33;12.52;;;6.60;99.90;;;;;;5062407;28;20395;-64
2022/12/27 13:35:38;;;;;;;20.67;12.65;;;6.60;99.90;;;;;;5062622;28;20040;-64
2022/12/27 13:38:06;;;;;;;22.92;14.48;;;6.50;99.90;;;;;;5079536;28;20044;-64
2022/12/27 13:41:00;;;;;;;23.75;14.35;;;6.50;99.90;;;;;;5070263;28;20052;-64
2022/12/27 13:43:40;;;;;;;24.42;13.82;;;6.50;99.90;;;;;;5085151;22;20144;-66
2022/12/27 13:46:11;;;;;;;22.02;13.13;;;6.50;99.90;;;;;;5056002;28;20174;-67
2022/12/27 13:49:10;;;;;;;25.17;13.65;;;6.60;99.90;;;;;;5056222;28;20048;-67
2022/12/27 13:51:50;;;;;;;27.25;14.52;;;6.60;99.90;;;;;;5064806;28;20044;-66
2022/12/27 13:54:54;;;;;;;23.15;13.07;;;6.60;99.90;;;;;;5051111;28;20036;-66
2022/12/27 13:57:29;;;;;;;19.75;11.50;;;6.60;99.90;;;;;;5059791;28;20040;-67
2022/12/27 14:00:20;;;;;;;25.08;14.15;;;6.60;99.90;;;;;;5053594;28;20048;-67
2022/12/27 14:03:04;;;;;;;29.88;13.82;;;6.50;99.90;;;;;;5073249;28;20494;-66
2022/12/27 14:06:15;;;;;;;26.45;14.02;;;6.50;99.90;;;;;;5052943;28;20041;-67
2022/12/27 14:09:15;;;;;;;25.23;13.90;;;6.60;99.90;;;;;;5072030;28;20457;-68
2022/12/27 14:12:00;;;;;;;25.42;14.00;;;6.60;99.90;;;;;;5066071;28;20386;-66
2022/12/27 14:14:27;;;;;;;24.42;12.73;;;6.60;99.90;;;;;;5035358;28;20457;-67
2022/12/27 14:16:56;;;;;;;23.98;14.57;;;6.50;99.90;;;;;;5047597;28;20482;-67
2022/12/27 14:19:46;;;;;;;23.30;13.95;;;6.60;99.90;;;;;;5090057;28;20043;-67
2022/12/27 14:22:44;;;;;;;22.00;13.20;;;6.50;99.90;;;;;;5075295;28;20123;-68
2022/12/27 14:25:39;;;;;;;24.63;15.00;;;6.40;99.90;;;;;;5057116;28;20052;-66
2022/12/27 14:28:46;;;;;;;26.17;13.38;;;6.40;99.90;;;;;;5071348;28;20056;-67
2022/12/27 14:31:33;;;;;;;24.83;13.98;;;6.40;99.90;;;;;;5033599;28;20052;-64
2022/12/27 14:34:24;;;;;;;25.63;14.80;;;6.30;99.90;;;;;;5053307;28;20054;-67
2022/12/27 14:36:56;;;;;;;29.23;14.32;;;6.30;99.90;;;;;;5063326;28;20398;-67
2022/12/27 14:39:40;;;;;;;31.80;15.07;;;6.20;99.90;;;;;;5055021;28;20455;-66
2022/12/27 14:42:40;;;;;;;28.55;12.95;;;6.20;99.90;;;;;;5060172;28;20043;-67
2022/12/27 14:45:43;;;;;;;26.63;13.50;;;6.20;99.90;;;;;;5067047;28;20467;-67
2022/12/27 14:48:56;;;;;;;25.48;13.90;;;6.10;99.90;;;;;;5047875;28;20391;-67
2022/12/27 14:51:50;;;;;;;27.15;13.55;;;6.10;99.90;;;;;;5059264;28;20116;-66
2022/12/27 14:54:44;;;;;;;23.50;12.35;;;6.10;99.90;;;;;;5062674;28;20379;-67
2022/12/27 14:57:19;;;;;;;27.80;14.05;;;6.00;99.90;;;;;;5078182;28;20582;-67
2022/12/27 15:00:11;;;;;;;25.17;14.43;;;6.00;99.90;;;;;;5072866;28;20048;-67
2022/12/27 15:03:11;;;;;;;29.38;13.80;;;6.00;99.90;;;;;;5061643;28;20049;-67